Observations for BRISTOL LULSGATE, United Kingdom (EGGD)

EGGD 231120Z AUTO 23010KT 9999 OVC007 15/14 Q1016   
EGGD 231050Z AUTO 22009KT 9999 OVC007 15/14 Q1016   
EGGD 231020Z AUTO 21007KT 9999 OVC006 14/14 Q1016   
EGGD 230950Z AUTO 22008KT 9999 BKN007 OVC015 14/14 Q1016
EGGD 230920Z AUTO 21007KT 9999 BKN004 BKN009 OVC013 13/13 Q1016 
EGGD 230850Z AUTO 21008KT 9999 BKN003 OVC013 13/13 Q1016
EGGD 230820Z AUTO 20007KT 9999 BKN003 OVC006 13/13 Q1016
EGGD 230750Z AUTO 18008KT 9999 -RA BKN003 OVC007 12/12 Q1016
EGGD 230720Z AUTO 20007KT 160V230 9999 OVC003 12/12 Q1016   
EGGD 230650Z AUTO 19007KT 150V220 9999 OVC005 12/12 Q1016   
EGGD 230620Z AUTO 18007KT 150V220 9999 BKN005 OVC009 12/12 Q1016
EGGD 230550Z AUTO 17007KT 9999 BKN006 OVC021 12/11 Q1016
EGGD 230520Z AUTO 19009KT 9999 BKN006 OVC016 11/11 Q1017
EGGD 230450Z AUTO 19006KT 9999 SCT007 BKN013 OVC032 11/11 Q1017 
EGGD 230420Z AUTO 19009KT 9999 FEW013 BKN023 OVC030 11/10 Q1017 
EGGD 230350Z AUTO 19008KT 9999 SCT013 BKN019 OVC030 11/10 Q1017 
EGGD 230320Z AUTO 20006KT 9999 -RA FEW008 BKN016 BKN021 11/10 Q1017 
EGGD 230250Z AUTO 20008KT 9999 SCT007 BKN011 BKN038 10/10 Q1017 
EGGD 230220Z AUTO 20007KT 9999 BKN011 BKN031 OVC043 10/10 Q1018 
EGGD 230150Z AUTO 21007KT 9999 -RA SCT021 BKN030 BKN044 10/10 Q1018 
EGGD 230120Z AUTO 20006KT 9999 -RA SCT007 BKN011 10/10 Q1018
EGGD 230050Z AUTO 20007KT 9999 FEW008 BKN011 BKN036 10/10 Q1018 REDZ
EGGD 230020Z AUTO 20007KT 9999 FEW011 BKN026 OVC039 10/09 Q1018 
EGGD 222350Z AUTO 20006KT 9999 FEW015 OVC032 10/10 Q1018
EGGD 222320Z AUTO 22006KT 6000 -RA SCT019 BKN027 BKN031 10/10 Q1019 
EGGD 222250Z AUTO 22006KT 9999 SCT009 SCT015 BKN020 10/10 Q1019 
EGGD 222220Z AUTO 26007KT 9999 SCT012 BKN025 BKN036 10/10 Q1019 
EGGD 222150Z AUTO 26008KT 9999 FEW011 SCT018 BKN025 10/09 Q1019 
EGGD 222120Z AUTO 26008KT 9999 BKN013 BKN018 OVC030 10/09 Q1019 
EGGD 222050Z AUTO 27008KT 9999 FEW022 BKN027 OVC039 11/09 Q1019 
EGGD 222020Z AUTO 27012KT 9999 OVC035 11/09 Q1019   
EGGD 221950Z AUTO 27013KT 9999 FEW017 BKN044 11/08 Q1019
EGGD 221920Z AUTO 28015KT 9999 OVC048 11/08 Q1019   
EGGD 221850Z AUTO 27012KT 9999 OVC048 11/08 Q1018   
EGGD 221820Z AUTO 27013KT 9999 OVC041 11/08 Q1018   
EGGD 221750Z 27014KT 9999 SCT030 BKN047 11/08 Q1018 
EGGD 221720Z AUTO 27011KT 9999 BKN022 OVC030 11/08 Q1018
EGGD 221650Z AUTO 27012KT 9999 BKN023 BKN030 BKN044 11/08 Q1017 
EGGD 221620Z AUTO 27017KT 9999 BKN024 OVC031 11/08 Q1017
EGGD 221550Z AUTO 28018KT 9999 SCT019 SCT024 BKN034 12/09 Q1017 
EGGD 221520Z AUTO 27022KT 9999 FEW025 BKN031 BKN046 11/08 Q1017 
EGGD 221450Z AUTO 27022KT 9999 SCT025 BKN032 BKN045 12/08 Q1016 
EGGD 221420Z AUTO 27022KT 9999 FEW019/// SCT033/// BKN043/// //////TCU 12/08 Q1016  
EGGD 221350Z AUTO 27024KT 9999 SCT017 SCT031 BKN037 12/08 Q1016 
EGGD 221320Z 28023KT 9999 FEW016 SCT036 11/08 Q1016 
EGGD 221250Z AUTO 27021KT 9999 FEW020 BKN032 BKN039 11/08 Q1016 
EGGD 221220Z 28022KT 9999 VCSH FEW024 BKN042 11/07 Q1016
EGGD 221150Z 27020KT 9999 FEW030 BKN034 11/07 Q1016 
EGGD 221120Z AUTO 27020KT 9999 FEW035 12/07 Q1015   
EGGD 221050Z AUTO 27022KT 9999 FEW029 BKN035 11/06 Q1015